createdAt,value
2022-10-01T00:02:29.267Z,18058.28
2022-10-01T00:04:57.644Z,18054.22
2022-10-01T00:07:26.193Z,18035.94
2022-10-01T00:09:54.209Z,18072.50
2022-10-01T00:12:22.168Z,18052.19
2022-10-01T00:14:51.053Z,18046.09
2022-10-01T00:17:19.013Z,18009.53
2022-10-01T00:19:48.370Z,18086.72
2022-10-01T00:22:16.396Z,18054.22
2022-10-01T00:24:46.054Z,18046.09
2022-10-01T00:27:14.231Z,18076.56
2022-10-01T00:29:44.193Z,18060.31
2022-10-01T00:32:12.396Z,18086.72
2022-10-01T00:34:40.416Z,18086.72
2022-10-01T00:37:10.572Z,18072.50
2022-10-01T00:39:39.102Z,18094.84
2022-10-01T00:42:20.370Z,18078.59
2022-10-01T00:44:49.220Z,18098.91
2022-10-01T00:47:29.405Z,18078.59
2022-10-01T00:50:05.809Z,18080.63
2022-10-01T00:52:41.391Z,18113.13
2022-10-01T00:55:16.554Z,18072.50
2022-10-01T00:57:46.404Z,18143.59
2022-10-01T01:00:15.964Z,18137.50
2022-10-01T01:02:44.598Z,18096.88
2022-10-01T01:05:13.972Z,18127.34
2022-10-01T01:07:49.399Z,18143.59
2022-10-01T01:10:25.236Z,18176.09
2022-10-01T01:13:12.824Z,18180.16
2022-10-01T01:15:50.987Z,18228.91
2022-10-01T01:18:30.087Z,18273.63
2022-10-01T01:21:22.218Z,18188.28
2022-10-01T01:24:40.231Z,18206.56
2022-10-01T01:27:31.324Z,18220.78
2022-10-01T01:30:06.107Z,18192.34
2022-10-01T01:32:47.816Z,18184.22
2022-10-01T01:35:25.201Z,18204.53
2022-10-01T01:38:01.928Z,18192.34
2022-10-01T01:40:36.806Z,18216.72
2022-10-01T01:43:09.195Z,18206.56
2022-10-01T01:45:41.199Z,18184.22
2022-10-01T01:48:12.920Z,18218.75
2022-10-01T01:50:49.982Z,18298.00
2022-10-01T01:53:17.994Z,18310.19
2022-10-01T01:55:49.298Z,18287.84
2022-10-01T01:58:19.808Z,18273.63
2022-10-01T02:00:52.756Z,18302.06
2022-10-01T02:03:22.381Z,18306.13
2022-10-01T02:06:02.737Z,18302.06
2022-10-01T02:08:44.142Z,18300.03
2022-10-01T02:11:25.904Z,18293.94
2022-10-01T02:14:15.762Z,18300.03
2022-10-01T02:16:51.410Z,18322.38
2022-10-01T02:19:31.054Z,18328.47
2022-10-01T02:22:06.125Z,18360.97
2022-10-01T02:24:42.711Z,18334.56
2022-10-01T02:27:20.120Z,18318.31
2022-10-01T02:29:50.918Z,18330.50
2022-10-01T02:32:22.917Z,18332.53
2022-10-01T02:34:53.809Z,18330.50
2022-10-01T02:37:28.663Z,18302.06
2022-10-01T02:40:00.335Z,18334.56
2022-10-01T02:42:31.879Z,18326.44
2022-10-01T02:45:04.856Z,18306.13
2022-10-01T02:47:43.566Z,18413.78
2022-10-01T02:50:14.063Z,18354.88
2022-10-01T02:52:49.187Z,18342.69
2022-10-01T02:55:22.202Z,18383.31
2022-10-01T02:57:49.985Z,18326.44
2022-10-01T03:00:21.576Z,18354.88
2022-10-01T03:02:51.916Z,18393.47
2022-10-01T03:05:20.422Z,18401.59
2022-10-01T03:07:49.209Z,18397.53
2022-10-01T03:10:17.883Z,18389.41
2022-10-01T03:12:46.656Z,18391.44
2022-10-01T03:15:19.081Z,18397.53
2022-10-01T03:17:51.244Z,18413.78
2022-10-01T03:20:20.688Z,18363.00
2022-10-01T03:22:49.062Z,18387.38
2022-10-01T03:25:18.100Z,18379.25
2022-10-01T03:27:47.086Z,18419.88
2022-10-01T03:30:15.458Z,18432.09
2022-10-01T03:32:43.481Z,18415.81
2022-10-01T03:35:11.593Z,18381.28
2022-10-01T03:37:40.971Z,18375.19
2022-10-01T03:40:10.068Z,18428.03
2022-10-01T03:42:38.060Z,18436.16
2022-10-01T03:45:06.761Z,18415.81
2022-10-01T03:47:35.069Z,18389.41
2022-10-01T03:50:03.088Z,18415.81
2022-10-01T03:52:31.078Z,18407.69
2022-10-01T03:55:00.845Z,18425.97
2022-10-01T03:57:28.842Z,18419.88
2022-10-01T03:59:56.800Z,18444.28
2022-10-01T04:02:25.449Z,18413.78
2022-10-01T04:04:53.504Z,18423.94
2022-10-01T04:07:21.919Z,18425.97
2022-10-01T04:09:51.002Z,18466.63
2022-10-01T04:12:20.320Z,18430.06
2022-10-01T04:14:48.358Z,18440.22
2022-10-01T04:17:16.366Z,18486.94
2022-10-01T04:19:44.329Z,18488.97
2022-10-01T04:22:12.302Z,18470.69
2022-10-01T04:24:40.245Z,18460.53
2022-10-01T04:27:08.266Z,18452.41
2022-10-01T04:29:40.399Z,18466.63
2022-10-01T04:32:08.554Z,18470.69
2022-10-01T04:34:54.810Z,18484.91
2022-10-01T04:37:24.335Z,18454.44
2022-10-01T04:39:52.415Z,18452.41
2022-10-01T04:42:20.429Z,18452.41
2022-10-01T04:44:50.026Z,18482.88
2022-10-01T04:47:17.989Z,18460.53
2022-10-01T04:49:45.984Z,18456.47
2022-10-01T04:52:14.031Z,18415.81
2022-10-01T04:54:42.113Z,18432.09
2022-10-01T04:57:10.100Z,18403.63
2022-10-01T04:59:38.084Z,18417.84
2022-10-01T05:02:07.483Z,18432.09
2022-10-01T05:04:35.496Z,18464.59
2022-10-01T05:07:03.559Z,18448.34
2022-10-01T05:09:31.659Z,18456.47
2022-10-01T05:11:59.659Z,18458.50
2022-10-01T05:14:27.676Z,18425.97
2022-10-01T05:16:55.647Z,18440.22
2022-10-01T05:19:28.925Z,18442.25
2022-10-01T05:21:57.050Z,18450.38
2022-10-01T05:24:25.472Z,18464.59
2022-10-01T05:26:54.390Z,18476.78
2022-10-01T05:29:23.011Z,18482.88
2022-10-01T05:31:51.004Z,18480.84
2022-10-01T05:34:19.031Z,18442.25
2022-10-01T05:36:48.405Z,18462.56
2022-10-01T05:39:16.476Z,18499.13
2022-10-01T05:41:44.460Z,18535.69
2022-10-01T05:44:12.479Z,18556.00
2022-10-01T05:46:40.582Z,18600.72
2022-10-01T05:49:08.679Z,18600.72
2022-10-01T05:51:36.974Z,18653.53
2022-10-01T05:54:06.579Z,18610.88
2022-10-01T05:56:35.008Z,18614.94
2022-10-01T05:59:03.002Z,18677.91
2022-10-01T06:01:31.735Z,18681.97
2022-10-01T06:04:00.238Z,18665.72
2022-10-01T06:06:30.108Z,18700.25
2022-10-01T06:08:58.107Z,18704.31
2022-10-01T06:11:27.447Z,18751.06
2022-10-01T06:13:55.451Z,18744.97
2022-10-01T06:16:23.457Z,18726.69
2022-10-01T06:18:57.297Z,18641.34
2022-10-01T06:21:26.004Z,18728.72
2022-10-01T06:23:54.967Z,18677.91
2022-10-01T06:26:23.086Z,18718.56
2022-10-01T06:28:52.809Z,18700.25
2022-10-01T06:31:21.524Z,18740.91
2022-10-01T06:33:49.544Z,18738.88
2022-10-01T06:36:17.639Z,18789.66
2022-10-01T06:38:48.443Z,18791.69
2022-10-01T06:41:16.453Z,18814.03
2022-10-01T06:43:44.441Z,18840.47
2022-10-01T06:46:13.826Z,18842.50
2022-10-01T06:48:41.794Z,18822.19
2022-10-01T06:51:09.767Z,18830.31
2022-10-01T06:53:37.187Z,18822.19
2022-10-01T06:56:07.174Z,18797.78
2022-10-01T06:58:36.502Z,18913.59
2022-10-01T07:01:04.913Z,18931.91
2022-10-01T07:03:34.834Z,18848.59
2022-10-01T07:06:04.901Z,18950.19
2022-10-01T07:08:33.419Z,18964.41
2022-10-01T07:11:03.514Z,19041.63
2022-10-01T07:13:32.064Z,18946.13
2022-10-01T07:16:00.247Z,19033.50
2022-10-01T07:18:28.296Z,19015.19
2022-10-01T07:20:59.401Z,19066.00
2022-10-01T07:23:27.430Z,19023.34
2022-10-01T07:25:55.466Z,19094.44
2022-10-01T07:28:25.726Z,19070.06
2022-10-01T07:31:02.008Z,19049.75
2022-10-01T07:33:30.502Z,19086.31
2022-10-01T07:36:03.569Z,19110.72
2022-10-01T07:38:33.312Z,19114.78
2022-10-01T07:41:02.947Z,19192.00
2022-10-01T07:43:32.268Z,19110.72
2022-10-01T07:46:01.950Z,19035.53
2022-10-01T07:48:31.005Z,19000.97
2022-10-01T07:50:59.002Z,18911.56
2022-10-01T07:53:28.709Z,18903.44
2022-10-01T07:55:56.777Z,18895.31
2022-10-01T07:58:24.747Z,18846.56
2022-10-01T08:00:56.002Z,18826.25
2022-10-01T08:03:24.362Z,18789.66
2022-10-01T08:05:54.574Z,18789.66
2022-10-01T08:08:22.549Z,18777.47
2022-10-01T08:10:51.889Z,18744.97
2022-10-01T08:13:24.619Z,18749.03
2022-10-01T08:15:54.769Z,18673.84
2022-10-01T08:18:24.347Z,18696.19
2022-10-01T08:20:52.531Z,18698.22
2022-10-01T08:23:20.492Z,18690.09
2022-10-01T08:25:49.338Z,18661.66
2022-10-01T08:28:19.467Z,18669.78
2022-10-01T08:30:47.470Z,18722.63
2022-10-01T08:33:15.823Z,18702.28
2022-10-01T08:35:44.664Z,18696.19
2022-10-01T08:38:14.204Z,18659.63
2022-10-01T08:40:50.058Z,18677.91
2022-10-01T08:43:32.605Z,18704.31
2022-10-01T08:46:05.691Z,18702.28
2022-10-01T08:48:57.180Z,18716.53
2022-10-01T08:51:36.137Z,18771.38
2022-10-01T08:54:19.818Z,18771.38
2022-10-01T08:56:48.888Z,18751.06
2022-10-01T08:59:39.057Z,18858.75
2022-10-01T09:02:21.933Z,18856.72
2022-10-01T09:05:00.316Z,18858.75
2022-10-01T09:07:50.537Z,18854.69
2022-10-01T09:10:35.808Z,18850.63
2022-10-01T09:13:32.413Z,18789.66
2022-10-01T09:16:13.076Z,18836.41
2022-10-01T09:19:01.225Z,18777.47
2022-10-01T09:21:48.726Z,18769.34
2022-10-01T09:24:27.997Z,18751.06
2022-10-01T09:26:56.209Z,18734.81
2022-10-01T09:29:31.052Z,18714.50
2022-10-01T09:32:03.981Z,18675.88
2022-10-01T09:34:38.857Z,18655.56
2022-10-01T09:37:19.338Z,18627.13
2022-10-01T09:40:04.721Z,18610.88
2022-10-01T09:42:33.148Z,18598.69
2022-10-01T09:45:01.153Z,18574.28
2022-10-01T09:47:34.455Z,18580.41
2022-10-01T09:50:07.182Z,18549.91
2022-10-01T09:52:39.676Z,18582.44
2022-10-01T09:55:23.844Z,18586.50
2022-10-01T09:58:01.025Z,18560.06
2022-10-01T10:00:29.483Z,18558.03
2022-10-01T10:02:59.099Z,18564.13
2022-10-01T10:05:29.385Z,18521.47
2022-10-01T10:08:04.087Z,18545.84
2022-10-01T10:10:35.704Z,18515.38
2022-10-01T10:13:31.656Z,18495.06
2022-10-01T10:16:01.237Z,18493.03
2022-10-01T10:18:34.564Z,18488.97
2022-10-01T10:21:07.945Z,18484.91
2022-10-01T10:23:46.858Z,18452.41
2022-10-01T10:26:21.937Z,18491.00
2022-10-01T10:28:50.010Z,18468.66
2022-10-01T10:31:22.796Z,18454.44
2022-10-01T10:33:58.730Z,18454.44
2022-10-01T10:36:31.006Z,18430.06
2022-10-01T10:39:00.735Z,18409.72
2022-10-01T10:41:31.365Z,18407.69
2022-10-01T10:44:06.245Z,18391.44
2022-10-01T10:46:42.775Z,18393.47
2022-10-01T10:49:22.406Z,18397.53
2022-10-01T10:51:54.293Z,18387.38
2022-10-01T10:54:29.189Z,18383.31
2022-10-01T10:57:02.296Z,18381.28
2022-10-01T10:59:35.001Z,18375.19
2022-10-01T11:02:06.931Z,18401.59
2022-10-01T11:04:44.192Z,18411.75
2022-10-01T11:07:19.689Z,18417.84
2022-10-01T11:10:33.666Z,18444.28
2022-10-01T11:13:28.210Z,18436.16
2022-10-01T11:16:24.205Z,18440.22
2022-10-01T11:19:15.115Z,18456.47
2022-10-01T11:22:08.327Z,18486.94
2022-10-01T11:25:00.899Z,18458.50
2022-10-01T11:27:45.592Z,18460.53
2022-10-01T11:30:21.865Z,18454.44
2022-10-01T11:33:04.641Z,18505.22
2022-10-01T11:35:55.358Z,18478.81
2022-10-01T11:38:49.313Z,18462.56
2022-10-01T11:41:34.872Z,18509.28
2022-10-01T11:44:12.307Z,18515.38
2022-10-01T11:46:54.318Z,18521.47
2022-10-01T11:49:44.573Z,18545.84
2022-10-01T11:52:27.806Z,18531.63
2022-10-01T11:55:30.131Z,18545.84
2022-10-01T11:58:24.216Z,18562.09
2022-10-01T12:01:04.705Z,18560.06
2022-10-01T12:03:56.049Z,18566.16
2022-10-01T12:06:34.045Z,18556.00
2022-10-01T12:09:14.181Z,18578.38
2022-10-01T12:11:53.928Z,18623.06
2022-10-01T12:14:31.348Z,18578.38
2022-10-01T12:17:12.140Z,18627.13
2022-10-01T12:19:48.184Z,18614.94
2022-10-01T12:22:25.614Z,18614.94
2022-10-01T12:24:54.239Z,18635.25
2022-10-01T12:27:47.801Z,18649.47
2022-10-01T12:30:21.434Z,18659.63
2022-10-01T12:33:11.861Z,18673.84
2022-10-01T12:35:58.319Z,18679.94
2022-10-01T12:38:54.157Z,18694.16
2022-10-01T12:41:43.156Z,18724.66
2022-10-01T12:44:35.105Z,18740.91
2022-10-01T12:47:24.971Z,18781.53
2022-10-01T12:50:10.705Z,18814.03
2022-10-01T12:52:51.409Z,18818.09
2022-10-01T12:55:37.085Z,18836.41
2022-10-01T12:58:20.040Z,18870.94
2022-10-01T13:01:05.234Z,18883.13
2022-10-01T13:04:11.043Z,18881.09
2022-10-01T13:07:04.753Z,18903.44
2022-10-01T13:09:49.109Z,18915.63
2022-10-01T13:12:38.289Z,18893.28
2022-10-01T13:15:14.542Z,18850.63
2022-10-01T13:17:53.722Z,18846.56
2022-10-01T13:20:31.892Z,18826.25
2022-10-01T13:23:09.002Z,18820.16
2022-10-01T13:25:47.653Z,18870.94
2022-10-01T13:28:25.834Z,18838.44
2022-10-01T13:31:00.690Z,18844.53
2022-10-01T13:33:32.600Z,18893.28
2022-10-01T13:36:03.479Z,18895.31
2022-10-01T13:38:42.536Z,18891.25
2022-10-01T13:41:23.423Z,18921.75
2022-10-01T13:43:58.250Z,18915.63
2022-10-01T13:46:31.460Z,18913.59
2022-10-01T13:49:17.800Z,18950.19
2022-10-01T13:51:47.374Z,18923.78
2022-10-01T13:54:28.405Z,18931.91
2022-10-01T13:56:56.505Z,18998.94
2022-10-01T13:59:35.698Z,18954.25
2022-10-01T14:02:04.701Z,18915.63
2022-10-01T14:04:41.737Z,18968.47
2022-10-01T14:07:18.836Z,18984.72
2022-10-01T14:09:51.284Z,19007.06
2022-10-01T14:12:43.205Z,19053.81
2022-10-01T14:15:36.829Z,19100.53
2022-10-01T14:18:12.368Z,19124.94
2022-10-01T14:20:58.817Z,19181.81
2022-10-01T14:23:37.690Z,19250.91
2022-10-01T14:26:18.088Z,19131.03
2022-10-01T14:29:11.145Z,19157.44
2022-10-01T14:31:53.027Z,19165.56
2022-10-01T14:34:52.284Z,19194.03
2022-10-01T14:37:22.571Z,19206.22
2022-10-01T14:40:03.246Z,19100.53
2022-10-01T14:42:31.263Z,19086.31
2022-10-01T14:44:59.320Z,19057.88
2022-10-01T14:47:34.858Z,19043.66
2022-10-01T14:50:11.777Z,19047.72
2022-10-01T14:52:50.991Z,19055.84
2022-10-01T14:55:24.418Z,19033.50
2022-10-01T14:57:56.506Z,19053.81
2022-10-01T15:00:28.174Z,19084.28
2022-10-01T15:03:12.547Z,19137.13
2022-10-01T15:05:40.604Z,19169.63
2022-10-01T15:08:15.593Z,19187.91
2022-10-01T15:10:50.815Z,19143.22
2022-10-01T15:13:27.287Z,19139.16
2022-10-01T15:15:56.930Z,19135.09
2022-10-01T15:18:25.850Z,19094.44
2022-10-01T15:20:58.740Z,19029.44
2022-10-01T15:23:31.522Z,19027.41
2022-10-01T15:26:03.706Z,19007.06
2022-10-01T15:28:34.446Z,19011.13
2022-10-01T15:31:06.002Z,18978.63
2022-10-01T15:33:37.227Z,18976.59
2022-10-01T15:36:08.459Z,18970.50
2022-10-01T15:38:38.610Z,18915.63
2022-10-01T15:41:30.572Z,18968.47
2022-10-01T15:43:58.363Z,18921.75
2022-10-01T15:46:33.175Z,18915.63
2022-10-01T15:49:25.970Z,18887.19
2022-10-01T15:52:17.606Z,18860.78
2022-10-01T15:54:48.437Z,18887.19
2022-10-01T15:57:22.290Z,18889.22
2022-10-01T15:59:54.167Z,18858.75
2022-10-01T16:02:27.203Z,18875.00
2022-10-01T16:04:56.606Z,18826.25
2022-10-01T16:07:33.432Z,18838.44
2022-10-01T16:10:27.571Z,18870.94
2022-10-01T16:12:55.693Z,18864.84
2022-10-01T16:15:29.570Z,18846.56
2022-10-01T16:18:02.285Z,18828.28
2022-10-01T16:20:42.882Z,18805.91
2022-10-01T16:23:37.719Z,18828.28
2022-10-01T16:26:32.246Z,18828.28
2022-10-01T16:29:04.042Z,18807.94
2022-10-01T16:31:32.935Z,18848.59
2022-10-01T16:34:00.932Z,18818.09
2022-10-01T16:36:28.891Z,18822.19
2022-10-01T16:38:57.371Z,18822.19
2022-10-01T16:41:28.350Z,18797.78
2022-10-01T16:43:59.096Z,18814.03
2022-10-01T16:46:27.304Z,18789.66
2022-10-01T16:48:55.272Z,18779.50
2022-10-01T16:51:23.229Z,18747.00
2022-10-01T16:53:52.299Z,18787.63
2022-10-01T16:56:24.833Z,18765.28
2022-10-01T16:58:56.383Z,18759.19
2022-10-01T17:01:24.457Z,18753.09
2022-10-01T17:03:52.505Z,18761.22
2022-10-01T17:06:20.482Z,18720.59
2022-10-01T17:08:48.489Z,18747.00
2022-10-01T17:11:16.508Z,18757.16
2022-10-01T17:13:44.539Z,18736.84
2022-10-01T17:16:13.996Z,18714.50
2022-10-01T17:18:43.698Z,18740.91
2022-10-01T17:21:12.001Z,18681.97
2022-10-01T17:23:40.021Z,18712.47
2022-10-01T17:26:09.427Z,18704.31
2022-10-01T17:28:37.439Z,18742.94
2022-10-01T17:31:08.452Z,18708.41
2022-10-01T17:33:38.974Z,18692.13
2022-10-01T17:36:09.141Z,18761.22
2022-10-01T17:38:37.308Z,18698.22
2022-10-01T17:41:05.623Z,18675.88
2022-10-01T17:43:33.729Z,18671.81
2022-10-01T17:46:02.690Z,18641.34
2022-10-01T17:48:31.226Z,18639.31
2022-10-01T17:51:03.391Z,18635.25
2022-10-01T17:53:36.117Z,18675.88
2022-10-01T17:56:09.794Z,18604.78
2022-10-01T17:58:40.601Z,18655.56
2022-10-01T18:01:14.950Z,18643.38
2022-10-01T18:03:43.069Z,18619.00
2022-10-01T18:06:15.262Z,18596.66
2022-10-01T18:08:58.709Z,18594.63
2022-10-01T18:11:29.081Z,18592.59
2022-10-01T18:13:57.160Z,18588.53
2022-10-01T18:16:26.788Z,18568.19
2022-10-01T18:21:51.494Z,18566.16
2022-10-01T18:24:19.648Z,18545.84
2022-10-01T18:26:47.898Z,18584.47
2022-10-01T18:29:21.463Z,18513.34
2022-10-01T18:31:56.000Z,18590.56
2022-10-01T18:34:33.359Z,18614.94
2022-10-01T18:37:09.229Z,18625.09
2022-10-01T18:39:44.104Z,18610.88
2022-10-01T18:42:21.285Z,18643.38
2022-10-01T18:44:56.346Z,18631.19
2022-10-01T18:47:42.645Z,18590.56
2022-10-01T18:50:29.236Z,18568.19
2022-10-01T18:53:22.109Z,18545.84
2022-10-01T18:56:19.603Z,18578.38
2022-10-01T18:59:30.879Z,18564.13
2022-10-01T19:02:36.947Z,18547.88
2022-10-01T19:06:03.571Z,18539.75
2022-10-01T19:09:12.939Z,18602.75
2022-10-01T19:11:54.172Z,18592.59
2022-10-01T19:14:44.766Z,18602.75
2022-10-01T19:17:36.376Z,18616.97
2022-10-01T19:20:37.625Z,18610.88
2022-10-01T19:23:25.005Z,18673.84
2022-10-01T19:26:04.584Z,18625.09
2022-10-01T19:28:57.852Z,18641.34
2022-10-01T19:31:37.307Z,18594.63
2022-10-01T19:34:13.899Z,18604.78
2022-10-01T19:36:51.473Z,18596.66
2022-10-01T19:39:25.141Z,18566.16
2022-10-01T19:42:00.316Z,18558.03
2022-10-01T19:44:38.141Z,18529.59
2022-10-01T19:47:19.504Z,18545.84
2022-10-01T19:49:50.152Z,18511.31
2022-10-01T19:52:21.131Z,18525.53
2022-10-01T19:54:58.701Z,18566.16
2022-10-01T19:57:34.786Z,18515.38
2022-10-01T20:00:10.330Z,18484.91
2022-10-01T20:02:51.338Z,18529.59
2022-10-01T20:05:29.189Z,18452.41
2022-10-01T20:08:08.788Z,18464.59
2022-10-01T20:10:44.846Z,18484.91
2022-10-01T20:13:39.888Z,18425.97
2022-10-01T20:16:23.063Z,18452.41
2022-10-01T20:19:01.165Z,18474.75
2022-10-01T20:21:50.385Z,18539.75
2022-10-01T20:24:53.047Z,18501.16
2022-10-01T20:27:39.037Z,18507.25
2022-10-01T20:30:12.969Z,18480.84
2022-10-01T20:32:51.734Z,18464.59
2022-10-01T20:35:31.197Z,18472.72
2022-10-01T20:38:07.883Z,18460.53
2022-10-01T20:40:44.856Z,18448.34
2022-10-01T20:43:18.912Z,18438.19
2022-10-01T20:45:54.606Z,18419.88
2022-10-01T20:48:28.764Z,18415.81
2022-10-01T20:51:08.237Z,18393.47
2022-10-01T20:53:45.998Z,18399.56
2022-10-01T20:56:19.927Z,18375.19
2022-10-01T20:58:53.859Z,18407.69
2022-10-01T21:01:26.141Z,18417.84
2022-10-01T21:04:02.607Z,18436.16
2022-10-01T21:06:38.255Z,18413.78
2022-10-01T21:09:18.450Z,18387.38
2022-10-01T21:11:54.773Z,18369.09
2022-10-01T21:14:29.817Z,18381.28
2022-10-01T21:17:24.491Z,18348.78
2022-10-01T21:20:24.674Z,18371.13
2022-10-01T21:23:11.365Z,18369.09
2022-10-01T21:25:59.298Z,18350.81
2022-10-01T21:28:57.250Z,18289.88
2022-10-01T21:31:44.895Z,18293.94
2022-10-01T21:34:24.181Z,18330.50
2022-10-01T21:37:06.128Z,18318.31
2022-10-01T21:39:46.914Z,18306.13
2022-10-01T21:42:19.079Z,18289.88
2022-10-01T21:45:24.633Z,18257.38
2022-10-01T21:48:17.214Z,18243.16
2022-10-01T21:50:55.102Z,18293.94
2022-10-01T21:53:53.829Z,18257.38
2022-10-01T21:56:46.117Z,18298.00
2022-10-01T21:59:35.557Z,18263.47
2022-10-01T22:02:20.531Z,18314.25
2022-10-01T22:04:57.477Z,18326.44
2022-10-01T22:07:35.348Z,18403.63
2022-10-01T22:10:16.159Z,18360.97
2022-10-01T22:12:50.770Z,18413.78
2022-10-01T22:15:28.414Z,18358.94
2022-10-01T22:17:58.814Z,18379.25
2022-10-01T22:20:31.780Z,18369.09
2022-10-01T22:23:08.158Z,18338.63
2022-10-01T22:25:44.406Z,18358.94
2022-10-01T22:28:21.461Z,18330.50
2022-10-01T22:30:54.848Z,18352.84
2022-10-01T22:33:33.594Z,18324.41
2022-10-01T22:36:09.974Z,18358.94
2022-10-01T22:38:46.894Z,18306.13
2022-10-01T22:41:25.351Z,18304.09
2022-10-01T22:43:53.596Z,18273.63
2022-10-01T22:47:05.887Z,18306.13
2022-10-01T22:49:53.065Z,18289.88
2022-10-01T22:52:36.452Z,18298.00
2022-10-01T22:55:22.304Z,18237.06
2022-10-01T22:58:25.124Z,18257.38
2022-10-01T23:01:11.117Z,18259.41
2022-10-01T23:03:57.070Z,18241.13
2022-10-01T23:06:39.239Z,18281.75
2022-10-01T23:09:16.420Z,18249.25
2022-10-01T23:11:56.362Z,18239.09
2022-10-01T23:14:49.728Z,18224.84
2022-10-01T23:17:26.589Z,18216.72
2022-10-01T23:20:14.910Z,18190.31
2022-10-01T23:23:17.287Z,18206.56
2022-10-01T23:26:11.180Z,18200.47
2022-10-01T23:29:01.302Z,18220.78
2022-10-01T23:31:40.471Z,18180.16
2022-10-01T23:34:28.136Z,18180.16
2022-10-01T23:37:16.067Z,18196.41
2022-10-01T23:39:52.043Z,18151.72
2022-10-01T23:42:35.788Z,18176.09
2022-10-01T23:45:19.890Z,18176.09
2022-10-01T23:47:59.439Z,18167.97
2022-10-01T23:50:36.046Z,18192.34
2022-10-01T23:53:16.165Z,18149.69
2022-10-01T23:56:10.826Z,18151.72
2022-10-01T23:58:49.804Z,18157.81
